createdAt,value
2023-07-24T00:04:37.971Z,82.89
2023-07-24T00:09:39.607Z,82.60
2023-07-24T00:14:41.363Z,82.39
2023-07-24T00:19:43.232Z,81.95
2023-07-24T00:24:45.325Z,81.91
2023-07-24T00:29:47.026Z,82.08
2023-07-24T00:34:48.956Z,81.16
2023-07-24T00:39:50.866Z,81.74
2023-07-24T00:44:53.295Z,81.73
2023-07-24T00:49:56.416Z,81.50
2023-07-24T00:54:58.133Z,81.56
2023-07-24T01:00:00.821Z,81.41
2023-07-24T01:05:02.884Z,81.78
2023-07-24T01:10:04.986Z,81.75
2023-07-24T01:15:29.920Z,89.03
2023-07-24T01:20:36.095Z,87.99
2023-07-24T01:25:52.048Z,86.25
2023-07-24T01:30:54.503Z,85.25
2023-07-24T01:36:00.072Z,84.81
2023-07-24T01:41:02.482Z,85.12
2023-07-24T01:46:04.381Z,85.05
2023-07-24T01:51:06.514Z,85.02
2023-07-24T01:56:08.305Z,84.72
2023-07-24T02:01:10.067Z,84.56
2023-07-24T02:06:11.874Z,84.59
2023-07-24T02:11:13.604Z,84.49
2023-07-24T02:16:16.020Z,84.88
2023-07-24T02:21:17.894Z,84.52
2023-07-24T02:26:19.605Z,84.99
2023-07-24T02:31:21.568Z,84.60
2023-07-24T02:36:24.796Z,84.47
2023-07-24T02:41:26.647Z,84.12
2023-07-24T02:46:30.027Z,84.24
2023-07-24T02:51:33.232Z,84.39
2023-07-24T02:56:35.184Z,85.02
2023-07-24T03:01:37.737Z,85.66
2023-07-24T03:06:40.820Z,86.00
2023-07-24T03:11:42.754Z,86.06
2023-07-24T03:16:44.502Z,86.21
2023-07-24T03:21:46.255Z,86.63
2023-07-24T03:26:48.588Z,86.53
2023-07-24T03:31:50.243Z,86.48
2023-07-24T03:36:52.192Z,86.67
2023-07-24T03:41:54.386Z,88.10
2023-07-24T03:46:56.105Z,87.33
2023-07-24T03:51:57.918Z,88.00
2023-07-24T03:56:59.632Z,88.19
2023-07-24T04:02:01.339Z,87.23
2023-07-24T04:07:03.606Z,89.85
2023-07-24T04:12:06.069Z,88.94
2023-07-24T04:17:07.893Z,89.62
2023-07-24T04:22:10.140Z,87.72
2023-07-24T04:27:11.873Z,88.25
2023-07-24T04:32:13.629Z,88.39
2023-07-24T04:37:15.314Z,89.35
2023-07-24T04:42:17.632Z,90.33
2023-07-24T04:47:19.448Z,90.14
2023-07-24T04:52:21.223Z,90.83
2023-07-24T04:57:23.198Z,91.00
2023-07-24T05:02:24.957Z,91.13
2023-07-24T05:12:28.804Z,93.23
2023-07-24T05:17:30.667Z,94.26
2023-07-24T05:22:32.425Z,94.43
2023-07-24T05:27:34.296Z,94.65
2023-07-24T05:32:36.233Z,92.47
2023-07-24T05:37:38.158Z,92.06
2023-07-24T05:42:42.788Z,92.33
2023-07-24T05:47:44.692Z,91.07
2023-07-24T05:52:46.741Z,89.11
2023-07-24T05:57:48.676Z,88.62
2023-07-24T06:02:50.586Z,87.20
2023-07-24T06:07:52.420Z,86.51
2023-07-24T06:12:54.063Z,85.44
2023-07-24T06:17:55.831Z,85.20
2023-07-24T06:22:57.657Z,85.88
2023-07-24T06:27:59.726Z,84.78
2023-07-24T06:33:01.512Z,83.51
2023-07-24T06:38:03.255Z,82.41
2023-07-24T06:43:05.036Z,82.71
2023-07-24T06:48:06.838Z,83.18
2023-07-24T06:53:08.651Z,82.92
2023-07-24T06:58:10.632Z,81.78
2023-07-24T07:03:12.568Z,80.69
2023-07-24T07:08:14.390Z,80.55
2023-07-24T07:13:16.034Z,79.61
2023-07-24T07:18:18.588Z,81.24
2023-07-24T07:23:21.351Z,78.96
2023-07-24T07:28:23.177Z,78.34
2023-07-24T07:33:25.862Z,77.07
2023-07-24T07:38:27.678Z,76.08
2023-07-24T07:43:29.448Z,76.00
2023-07-24T07:48:31.323Z,75.00
2023-07-24T07:53:33.040Z,75.23
2023-07-24T08:03:36.847Z,71.84
2023-07-24T08:08:38.963Z,71.95
2023-07-24T08:13:40.658Z,70.69
2023-07-24T08:18:42.352Z,67.91
2023-07-24T08:23:44.258Z,67.27
2023-07-24T08:28:46.172Z,67.49
2023-07-24T08:33:47.959Z,66.37
2023-07-24T08:38:49.705Z,66.59
2023-07-24T08:43:53.293Z,66.43
2023-07-24T08:48:55.904Z,65.71
2023-07-24T08:53:58.072Z,59.85
2023-07-24T08:58:59.922Z,61.58
2023-07-24T09:04:01.920Z,57.20
2023-07-24T09:09:04.218Z,56.86
2023-07-24T09:19:26.761Z,55.20
2023-07-24T09:24:28.814Z,54.01
2023-07-24T09:29:34.783Z,52.74
2023-07-24T09:34:43.504Z,52.81
2023-07-24T09:39:47.989Z,52.14
2023-07-24T09:44:49.780Z,52.31
2023-07-24T09:49:53.847Z,51.35
2023-07-24T09:55:12.709Z,49.90
2023-07-24T10:00:15.467Z,50.13
2023-07-24T10:05:18.813Z,48.93
2023-07-24T10:10:22.205Z,49.57
2023-07-24T10:15:24.152Z,49.74
2023-07-24T10:20:34.599Z,49.94
2023-07-24T10:25:41.733Z,49.37
2023-07-24T10:30:44.270Z,48.10
2023-07-24T10:35:52.369Z,47.49
2023-07-24T10:41:02.364Z,48.04
2023-07-24T10:46:04.242Z,47.66
2023-07-24T10:51:10.273Z,46.63
2023-07-24T10:56:12.521Z,46.40
2023-07-24T11:01:15.896Z,46.75
2023-07-24T11:06:19.762Z,45.94
2023-07-24T11:11:21.687Z,46.27
2023-07-24T11:16:23.576Z,45.48
2023-07-24T11:21:25.608Z,45.09
2023-07-24T11:26:28.141Z,45.34
2023-07-24T11:31:38.508Z,44.09
2023-07-24T11:36:40.664Z,44.64
2023-07-24T11:41:42.657Z,44.30
2023-07-24T11:46:44.596Z,45.15
2023-07-24T11:51:46.397Z,44.82
2023-07-24T11:56:48.124Z,45.46
2023-07-24T12:01:50.290Z,45.66
2023-07-24T12:06:52.868Z,46.37
2023-07-24T12:12:00.053Z,47.41
2023-07-24T12:17:03.184Z,48.57
2023-07-24T12:22:05.390Z,49.08
2023-07-24T12:27:07.168Z,50.85
2023-07-24T12:32:09.138Z,51.68
2023-07-24T12:37:11.150Z,51.82
2023-07-24T12:42:13.267Z,52.56
2023-07-24T12:47:15.259Z,53.26
2023-07-24T12:52:17.556Z,52.11
2023-07-24T12:57:19.301Z,52.43
2023-07-24T13:02:21.116Z,52.78
2023-07-24T13:07:22.941Z,52.27
2023-07-24T13:12:24.843Z,51.88
2023-07-24T13:17:27.673Z,53.39
2023-07-24T13:22:29.442Z,53.58
2023-07-24T13:27:31.292Z,53.10
2023-07-24T13:32:33.287Z,53.00
2023-07-24T13:37:35.113Z,51.21
2023-07-24T13:42:36.870Z,52.21
2023-07-24T13:47:38.614Z,51.10
2023-07-24T13:52:40.478Z,50.48
2023-07-24T13:57:42.660Z,50.49
2023-07-24T14:02:44.447Z,50.58
2023-07-24T14:07:46.422Z,50.93
2023-07-24T14:12:48.286Z,51.90
2023-07-24T14:17:49.967Z,51.98
2023-07-24T14:22:51.809Z,51.80
2023-07-24T14:27:53.642Z,52.39
2023-07-24T14:32:55.329Z,52.48
2023-07-24T14:37:57.222Z,52.14
2023-07-24T14:42:59.025Z,52.16
2023-07-24T14:48:00.737Z,52.55
2023-07-24T14:53:02.454Z,51.88
2023-07-24T14:58:04.366Z,50.62
2023-07-24T15:03:06.176Z,50.61
2023-07-24T15:08:08.040Z,50.33
2023-07-24T15:13:11.281Z,50.99
2023-07-24T15:18:13.141Z,51.31
2023-07-24T15:23:15.045Z,51.91
2023-07-24T15:28:17.411Z,52.35
2023-07-24T15:33:19.371Z,52.08
2023-07-24T15:38:21.032Z,52.59
2023-07-24T15:43:25.273Z,52.57
2023-07-24T15:48:27.116Z,51.09
2023-07-24T15:53:29.943Z,50.81
2023-07-24T15:58:31.718Z,49.69
2023-07-24T16:03:33.589Z,48.73
2023-07-24T16:08:35.408Z,47.24
2023-07-24T16:13:40.180Z,46.85
2023-07-24T16:18:42.247Z,47.44
2023-07-24T16:23:44.088Z,47.00
2023-07-24T16:28:45.907Z,47.14
2023-07-24T16:33:50.011Z,46.63
2023-07-24T16:38:52.184Z,46.82
2023-07-24T16:43:54.003Z,46.45
2023-07-24T16:48:55.809Z,46.35
2023-07-24T16:53:57.734Z,47.08
2023-07-24T16:58:59.445Z,46.78
2023-07-24T17:04:01.203Z,46.13
2023-07-24T17:09:03.395Z,46.46
2023-07-24T17:14:05.128Z,46.28
2023-07-24T17:19:06.805Z,45.55
2023-07-24T17:24:08.563Z,46.13
2023-07-24T17:29:10.562Z,45.59
2023-07-24T17:34:12.172Z,45.72
2023-07-24T17:39:13.922Z,46.26
2023-07-24T17:44:15.620Z,45.62
2023-07-24T17:49:17.437Z,45.88
2023-07-24T17:54:19.092Z,46.58
2023-07-24T17:59:20.871Z,46.44
2023-07-24T18:04:22.938Z,46.98
2023-07-24T18:09:24.856Z,45.53
2023-07-24T18:14:26.787Z,46.06
2023-07-24T18:19:29.428Z,46.76
2023-07-24T18:24:31.280Z,47.93
2023-07-24T18:29:33.721Z,48.35
2023-07-24T18:34:35.526Z,49.00
2023-07-24T18:39:37.227Z,49.16
2023-07-24T18:44:38.951Z,48.93
2023-07-24T18:49:41.072Z,49.20
2023-07-24T18:54:42.999Z,49.96
2023-07-24T18:59:44.827Z,49.98
2023-07-24T19:04:46.739Z,50.69
2023-07-24T19:09:49.278Z,51.71
2023-07-24T19:14:51.179Z,52.89
2023-07-24T19:19:52.909Z,53.91
2023-07-24T19:24:55.393Z,54.57
2023-07-24T19:30:02.748Z,56.17
2023-07-24T19:35:05.106Z,56.40
2023-07-24T19:40:07.632Z,57.65
2023-07-24T19:45:09.757Z,58.51
2023-07-24T19:50:11.456Z,58.83
2023-07-24T19:55:13.546Z,59.74
2023-07-24T20:00:15.705Z,60.27
2023-07-24T20:05:17.569Z,60.78
2023-07-24T20:10:19.255Z,60.08
2023-07-24T20:15:21.110Z,60.57
2023-07-24T20:35:48.153Z,60.36
2023-07-24T20:40:50.097Z,60.77
2023-07-24T20:45:52.146Z,61.07
2023-07-24T20:50:54.286Z,61.01
2023-07-24T20:55:55.993Z,61.27
2023-07-24T21:00:57.680Z,60.86
2023-07-24T21:05:59.471Z,61.47
2023-07-24T21:11:01.241Z,61.80
2023-07-24T21:16:03.008Z,61.52
2023-07-24T21:21:07.160Z,61.68
2023-07-24T21:26:10.439Z,61.31
2023-07-24T21:31:13.619Z,61.61
2023-07-24T21:36:15.392Z,61.58
2023-07-24T21:41:17.219Z,61.85
2023-07-24T21:46:19.021Z,61.89
2023-07-24T21:51:20.935Z,62.14
2023-07-24T21:56:22.849Z,62.29
2023-07-24T22:01:24.651Z,61.93
2023-07-24T22:06:26.887Z,62.05
2023-07-24T22:11:29.647Z,62.51
2023-07-24T22:16:31.652Z,63.01
2023-07-24T22:21:33.766Z,63.47
2023-07-24T22:26:35.739Z,67.11
2023-07-24T22:31:37.483Z,69.13
2023-07-24T22:36:40.998Z,67.96
2023-07-24T22:41:44.848Z,66.22
2023-07-24T22:46:46.682Z,66.45
2023-07-24T22:51:48.545Z,65.86
2023-07-24T22:56:50.293Z,65.61
2023-07-24T23:01:54.229Z,69.07
2023-07-24T23:06:56.502Z,69.70
2023-07-24T23:11:58.188Z,69.77
2023-07-24T23:16:59.899Z,69.01
2023-07-24T23:22:01.607Z,68.29
2023-07-24T23:27:03.352Z,67.92
2023-07-24T23:32:05.429Z,67.71
2023-07-24T23:37:07.193Z,67.50
2023-07-24T23:42:08.856Z,67.66
2023-07-24T23:47:10.774Z,68.36
2023-07-24T23:52:12.677Z,68.56
2023-07-24T23:57:14.614Z,67.91
